createdAt,value
2022-08-18T00:01:07.651Z,23.80
2022-08-18T00:03:56.989Z,23.70
2022-08-18T00:06:27.958Z,24.70
2022-08-18T00:08:57.945Z,24.80
2022-08-18T00:11:26.092Z,22.63
2022-08-18T00:13:54.245Z,23.90
2022-08-18T00:16:22.383Z,24.73
2022-08-18T00:18:51.910Z,24.90
2022-08-18T00:21:20.094Z,24.13
2022-08-18T00:23:48.220Z,25.50
2022-08-18T00:26:16.309Z,23.93
2022-08-18T00:28:44.414Z,23.70
2022-08-18T00:31:12.496Z,23.57
2022-08-18T00:33:40.605Z,24.73
2022-08-18T00:36:10.297Z,24.43
2022-08-18T00:38:38.440Z,23.87
2022-08-18T00:41:06.705Z,24.47
2022-08-18T00:43:39.911Z,26.07
2022-08-18T00:46:09.195Z,24.37
2022-08-18T00:48:37.544Z,25.17
2022-08-18T00:51:11.593Z,24.83
2022-08-18T00:53:44.092Z,25.07
2022-08-18T00:56:16.327Z,23.90
2022-08-18T00:58:47.003Z,23.57
2022-08-18T01:01:15.471Z,23.87
2022-08-18T01:03:43.710Z,24.60
2022-08-18T01:06:18.422Z,24.90
2022-08-18T01:08:46.517Z,23.83
2022-08-18T01:11:14.719Z,24.37
2022-08-18T01:13:42.943Z,23.73
2022-08-18T01:16:28.403Z,24.33
2022-08-18T01:19:14.038Z,25.90
2022-08-18T01:21:52.126Z,23.97
2022-08-18T01:24:43.337Z,22.27
2022-08-18T01:27:11.737Z,23.90
2022-08-18T01:29:43.600Z,22.70
2022-08-18T01:32:12.674Z,24.33
2022-08-18T01:34:40.779Z,24.40
2022-08-18T01:37:10.185Z,25.60
2022-08-18T01:41:11.007Z,24.20
2022-08-18T01:42:30.863Z,23.70
2022-08-18T01:44:58.970Z,23.17
2022-08-18T01:47:28.805Z,24.87
2022-08-18T01:50:01.212Z,23.50
2022-08-18T01:52:29.743Z,22.53
2022-08-18T01:54:59.231Z,23.57
2022-08-18T01:57:27.683Z,25.10
2022-08-18T01:59:55.816Z,24.10
2022-08-18T02:02:25.306Z,24.03
2022-08-18T02:04:53.714Z,23.60
2022-08-18T02:07:21.982Z,23.50
2022-08-18T02:10:00.311Z,24.57
2022-08-18T02:12:29.808Z,24.53
2022-08-18T02:14:58.038Z,23.83
2022-08-18T02:17:26.191Z,23.63
2022-08-18T02:19:54.318Z,25.80
2022-08-18T02:22:22.463Z,25.33
2022-08-18T02:24:50.646Z,23.13
2022-08-18T02:27:20.133Z,23.57
2022-08-18T02:29:48.264Z,25.60
2022-08-18T02:32:16.550Z,25.17
2022-08-18T02:34:47.449Z,25.47
2022-08-18T02:37:24.355Z,23.40
2022-08-18T02:39:52.513Z,25.00
2022-08-18T02:42:22.098Z,26.40
2022-08-18T02:44:50.215Z,25.00
2022-08-18T02:47:20.558Z,22.83
2022-08-18T02:49:48.794Z,22.63
2022-08-18T02:52:23.303Z,24.53
2022-08-18T02:54:52.784Z,24.60
2022-08-18T02:57:28.064Z,23.17
2022-08-18T02:59:56.271Z,24.03
2022-08-18T03:02:27.881Z,23.67
2022-08-18T03:04:56.041Z,24.10
2022-08-18T03:07:25.514Z,25.73
2022-08-18T03:09:53.646Z,25.00
2022-08-18T03:12:21.766Z,24.70
2022-08-18T03:14:51.334Z,24.23
2022-08-18T03:17:19.478Z,25.93
2022-08-18T03:19:48.041Z,25.93
2022-08-18T03:22:28.728Z,25.10
2022-08-18T03:24:57.919Z,25.17
2022-08-18T03:27:26.072Z,26.53
2022-08-18T03:29:55.696Z,25.07
2022-08-18T03:32:23.854Z,24.97
2022-08-18T03:34:52.112Z,27.03
2022-08-18T03:37:20.249Z,25.43
2022-08-18T03:39:51.922Z,25.70
2022-08-18T03:42:20.084Z,30.03
2022-08-18T03:44:48.195Z,24.70
2022-08-18T03:47:18.151Z,25.83
2022-08-18T03:49:46.298Z,26.07
2022-08-18T03:52:14.904Z,26.00
2022-08-18T03:54:43.281Z,24.67
2022-08-18T03:57:11.878Z,24.80
2022-08-18T03:59:43.822Z,23.30
2022-08-18T04:02:12.325Z,25.33
2022-08-18T04:04:42.937Z,26.00
2022-08-18T04:07:14.369Z,27.67
2022-08-18T04:09:43.125Z,25.50
2022-08-18T04:12:16.216Z,25.63
2022-08-18T04:14:48.151Z,27.60
2022-08-18T04:17:16.864Z,27.17
2022-08-18T04:19:47.001Z,27.33
2022-08-18T04:22:17.384Z,30.53
2022-08-18T04:24:46.814Z,30.47
2022-08-18T04:27:14.918Z,29.40
2022-08-18T04:29:43.029Z,29.50
2022-08-18T04:32:11.211Z,28.17
2022-08-18T04:34:39.375Z,29.93
2022-08-18T04:37:10.965Z,30.20
2022-08-18T04:39:39.177Z,29.60
2022-08-18T04:42:07.445Z,31.17
2022-08-18T04:44:37.942Z,33.90
2022-08-18T04:47:06.567Z,32.63
2022-08-18T04:49:34.688Z,37.33
2022-08-18T04:52:26.612Z,34.97
2022-08-18T04:55:10.258Z,41.00
2022-08-18T04:57:44.515Z,38.37
2022-08-18T05:00:13.859Z,36.97
2022-08-18T05:02:41.998Z,36.03
2022-08-18T05:05:11.244Z,40.73
2022-08-18T05:07:44.939Z,34.73
2022-08-18T05:10:17.757Z,38.77
2022-08-18T05:12:48.373Z,40.90
2022-08-18T05:15:17.835Z,43.17
2022-08-18T05:17:48.106Z,42.93
2022-08-18T05:20:19.130Z,44.23
2022-08-18T05:22:47.629Z,44.93
2022-08-18T05:25:17.521Z,43.50
2022-08-18T05:27:45.684Z,46.87
2022-08-18T05:30:15.862Z,44.50
2022-08-18T05:32:48.978Z,47.60
2022-08-18T05:35:23.368Z,42.90
2022-08-18T05:38:02.106Z,47.53
2022-08-18T05:40:31.950Z,43.47
2022-08-18T05:43:00.061Z,44.90
2022-08-18T05:45:28.549Z,44.27
2022-08-18T05:47:59.475Z,44.60
2022-08-18T05:50:41.423Z,45.77
2022-08-18T05:53:18.431Z,44.30
2022-08-18T05:56:12.339Z,45.90
2022-08-18T05:58:42.117Z,44.47
2022-08-18T06:01:14.723Z,47.57
2022-08-18T06:03:47.114Z,40.67
2022-08-18T06:06:16.502Z,43.03
2022-08-18T06:08:46.583Z,50.80
2022-08-18T06:11:17.325Z,46.23
2022-08-18T06:13:59.340Z,48.83
2022-08-18T06:16:34.181Z,45.60
2022-08-18T06:19:03.945Z,47.97
2022-08-18T06:21:39.325Z,45.67
2022-08-18T06:24:12.390Z,47.87
2022-08-18T06:26:45.511Z,45.57
2022-08-18T06:29:23.100Z,46.37
2022-08-18T06:31:54.702Z,49.00
2022-08-18T06:34:26.956Z,49.00
2022-08-18T06:36:56.615Z,48.00
2022-08-18T06:39:27.700Z,47.30
2022-08-18T06:41:57.250Z,49.03
2022-08-18T06:44:33.422Z,51.57
2022-08-18T06:47:05.340Z,44.20
2022-08-18T06:49:39.933Z,53.73
2022-08-18T06:52:22.215Z,48.20
2022-08-18T06:54:51.865Z,49.47
2022-08-18T06:57:30.597Z,46.67
2022-08-18T07:00:01.216Z,49.13
2022-08-18T07:02:48.287Z,47.67
2022-08-18T07:05:22.170Z,48.67
2022-08-18T07:08:05.526Z,45.37
2022-08-18T07:10:35.232Z,46.53
2022-08-18T07:13:27.309Z,46.47
2022-08-18T07:15:55.822Z,44.60
2022-08-18T07:18:26.332Z,45.20
2022-08-18T07:20:55.758Z,44.97
2022-08-18T07:23:29.656Z,47.70
2022-08-18T07:26:09.780Z,42.70
2022-08-18T07:28:41.870Z,47.03
2022-08-18T07:31:21.674Z,49.77
2022-08-18T07:33:58.004Z,45.70
2022-08-18T07:36:29.917Z,46.97
2022-08-18T07:39:00.182Z,47.03
2022-08-18T07:41:30.249Z,41.00
2022-08-18T07:44:13.578Z,45.63
2022-08-18T07:46:45.420Z,43.87
2022-08-18T07:49:15.678Z,41.07
2022-08-18T07:51:48.240Z,42.37
2022-08-18T07:54:48.913Z,42.77
2022-08-18T07:57:21.931Z,43.73
2022-08-18T07:59:54.080Z,45.20
2022-08-18T08:02:30.101Z,42.37
2022-08-18T08:05:03.320Z,40.63
2022-08-18T08:07:32.861Z,45.77
2022-08-18T08:10:23.973Z,44.73
2022-08-18T08:13:06.039Z,40.40
2022-08-18T08:15:43.472Z,41.80
2022-08-18T08:18:13.695Z,42.90
2022-08-18T08:20:45.062Z,47.53
2022-08-18T08:23:18.578Z,39.30
2022-08-18T08:25:58.509Z,37.97
2022-08-18T08:28:33.945Z,40.47
2022-08-18T08:31:35.300Z,43.00
2022-08-18T08:34:06.010Z,41.90
2022-08-18T08:36:35.921Z,37.93
2022-08-18T08:39:06.106Z,41.47
2022-08-18T08:41:35.716Z,43.00
2022-08-18T08:44:10.439Z,40.63
2022-08-18T08:46:43.405Z,46.13
2022-08-18T08:49:15.821Z,38.43
2022-08-18T08:51:46.531Z,38.57
2022-08-18T08:54:18.289Z,38.30
2022-08-18T08:56:47.868Z,42.60
2022-08-18T08:59:17.127Z,39.37
2022-08-18T09:02:27.066Z,41.43
2022-08-18T09:05:08.924Z,40.50
2022-08-18T09:08:11.908Z,38.63
2022-08-18T09:11:00.195Z,38.07
2022-08-18T09:14:09.072Z,37.73
2022-08-18T09:16:42.583Z,40.50
2022-08-18T09:19:32.004Z,38.50
2022-08-18T09:22:01.481Z,39.00
2022-08-18T09:24:31.707Z,40.03
2022-08-18T09:27:14.896Z,35.80
2022-08-18T09:29:51.309Z,36.90
2022-08-18T09:32:35.558Z,38.63
2022-08-18T09:35:20.222Z,39.40
2022-08-18T09:38:22.740Z,34.60
2022-08-18T09:41:12.604Z,39.27
2022-08-18T09:43:41.624Z,35.97
2022-08-18T09:46:12.400Z,37.27
2022-08-18T09:48:43.221Z,36.77
2022-08-18T09:51:39.955Z,35.50
2022-08-18T09:54:21.459Z,32.67
2022-08-18T09:57:24.499Z,36.20
2022-08-18T10:00:24.335Z,38.03
2022-08-18T10:03:31.254Z,37.10
2022-08-18T10:06:07.287Z,32.80
2022-08-18T10:09:27.184Z,33.47
2022-08-18T10:12:32.350Z,35.37
2022-08-18T10:15:33.222Z,35.47
2022-08-18T10:18:11.789Z,32.63
2022-08-18T10:20:44.736Z,36.90
2022-08-18T10:23:13.603Z,34.50
2022-08-18T10:25:46.551Z,29.77
2022-08-18T10:28:54.354Z,35.77
2022-08-18T10:31:24.164Z,30.60
2022-08-18T10:34:16.739Z,35.50
2022-08-18T10:36:48.113Z,31.67
2022-08-18T10:39:18.547Z,32.17
2022-08-18T10:42:04.123Z,30.63
2022-08-18T10:44:33.035Z,32.80
2022-08-18T10:47:02.506Z,34.53
2022-08-18T10:49:33.174Z,34.13
2022-08-18T10:52:20.819Z,29.87
2022-08-18T10:55:16.315Z,31.40
2022-08-18T10:58:13.792Z,29.83
2022-08-18T11:00:53.370Z,36.37
2022-08-18T11:03:52.170Z,32.23
2022-08-18T11:06:22.393Z,29.10
2022-08-18T11:11:53.146Z,30.93
2022-08-18T11:15:01.002Z,29.67
2022-08-18T11:17:57.590Z,28.03
2022-08-18T11:20:30.109Z,27.47
2022-08-18T11:23:00.462Z,30.97
2022-08-18T11:25:31.134Z,30.00
2022-08-18T11:27:59.502Z,34.63
2022-08-18T11:30:32.878Z,29.40
2022-08-18T11:33:08.047Z,28.30
2022-08-18T11:35:47.133Z,29.57
2022-08-18T11:38:23.095Z,31.17
2022-08-18T11:43:43.370Z,30.00
2022-08-18T11:46:27.931Z,30.90
2022-08-18T11:49:00.058Z,33.00
2022-08-18T11:51:31.470Z,30.00
2022-08-18T11:54:00.862Z,28.30
2022-08-18T11:56:30.838Z,27.30
2022-08-18T11:59:00.839Z,28.10
2022-08-18T12:01:41.831Z,28.73
2022-08-18T12:04:22.934Z,29.50
2022-08-18T12:07:04.410Z,25.87
2022-08-18T12:10:17.299Z,23.80
2022-08-18T12:12:28.210Z,25.40
2022-08-18T12:15:13.695Z,26.50
2022-08-18T12:17:52.506Z,23.70
2022-08-18T12:20:22.949Z,25.77
2022-08-18T12:22:51.687Z,24.03
2022-08-18T12:28:10.897Z,24.43
2022-08-18T12:30:42.279Z,26.07
2022-08-18T12:33:12.655Z,23.50
2022-08-18T12:35:44.691Z,23.40
2022-08-18T12:38:14.525Z,24.10
2022-08-18T12:40:44.255Z,23.40
2022-08-18T12:46:01.091Z,23.77
2022-08-18T12:48:29.259Z,23.13
2022-08-18T12:53:58.554Z,23.97
2022-08-18T12:56:30.404Z,22.30
2022-08-18T12:58:59.092Z,22.53
2022-08-18T13:01:28.060Z,23.03
2022-08-18T13:04:10.926Z,23.50
2022-08-18T13:06:59.318Z,21.80
2022-08-18T13:09:42.793Z,23.47
2022-08-18T13:12:18.507Z,22.07
2022-08-18T13:14:48.011Z,21.27
2022-08-18T13:17:29.440Z,21.67
2022-08-18T13:20:03.010Z,23.40
2022-08-18T13:22:33.326Z,22.53
2022-08-18T13:25:32.256Z,21.67
2022-08-18T13:28:01.614Z,20.80
2022-08-18T13:30:32.300Z,22.20
2022-08-18T13:33:05.384Z,22.40
2022-08-18T13:35:52.100Z,20.17
2022-08-18T13:38:26.040Z,21.83
2022-08-18T13:40:56.523Z,23.33
2022-08-18T13:43:26.304Z,22.70
2022-08-18T13:45:56.299Z,21.33
2022-08-18T13:48:25.695Z,22.90
2022-08-18T13:50:55.600Z,21.87
2022-08-18T13:53:26.415Z,21.40
2022-08-18T13:55:58.676Z,23.50
2022-08-18T13:58:28.382Z,21.97
2022-08-18T14:01:15.859Z,20.43
2022-08-18T14:03:47.909Z,23.53
2022-08-18T14:06:21.958Z,21.60
2022-08-18T14:08:53.219Z,22.20
2022-08-18T14:11:22.549Z,21.53
2022-08-18T14:13:54.059Z,22.63
2022-08-18T14:16:23.281Z,22.07
2022-08-18T14:19:12.582Z,22.20
2022-08-18T14:22:00.369Z,21.27
2022-08-18T14:24:48.711Z,20.23
2022-08-18T14:27:17.751Z,22.30
2022-08-18T14:29:48.666Z,22.47
2022-08-18T14:32:21.839Z,20.77
2022-08-18T14:35:00.243Z,21.10
2022-08-18T14:37:29.243Z,21.70
2022-08-18T14:39:58.834Z,22.23
2022-08-18T14:42:41.022Z,21.20
2022-08-18T14:45:26.382Z,22.53
2022-08-18T14:47:59.951Z,21.50
2022-08-18T14:50:28.073Z,21.07
2022-08-18T14:52:56.200Z,20.10
2022-08-18T14:55:25.747Z,20.97
2022-08-18T14:57:54.953Z,23.47
2022-08-18T15:00:27.855Z,21.57
2022-08-18T15:02:59.758Z,24.40
2022-08-18T15:05:33.936Z,21.23
2022-08-18T15:08:03.931Z,20.37
2022-08-18T15:10:33.589Z,20.93
2022-08-18T15:13:01.757Z,20.10
2022-08-18T15:15:50.552Z,21.63
2022-08-18T15:18:22.665Z,22.00
2022-08-18T15:21:10.290Z,20.60
2022-08-18T15:24:19.986Z,20.80
2022-08-18T15:26:51.767Z,20.63
2022-08-18T15:29:27.758Z,21.17
2022-08-18T15:32:05.575Z,20.30
2022-08-18T15:34:46.427Z,21.03
2022-08-18T15:37:19.934Z,20.70
2022-08-18T15:39:51.987Z,19.33
2022-08-18T15:42:25.603Z,20.07
2022-08-18T15:44:55.544Z,20.20
2022-08-18T15:47:25.425Z,19.20
2022-08-18T15:49:54.816Z,19.27
2022-08-18T15:52:26.203Z,19.33
2022-08-18T15:54:57.016Z,18.80
2022-08-18T15:57:38.893Z,19.40
2022-08-18T16:00:12.047Z,18.67
2022-08-18T16:02:40.940Z,18.20
2022-08-18T16:05:14.147Z,20.50
2022-08-18T16:07:53.558Z,20.57
2022-08-18T16:10:22.517Z,19.60
2022-08-18T16:12:52.261Z,18.23
2022-08-18T16:15:36.393Z,19.23
2022-08-18T16:18:05.528Z,18.70
2022-08-18T16:20:33.736Z,19.73
2022-08-18T16:23:01.891Z,20.97
2022-08-18T16:25:30.028Z,18.97
2022-08-18T16:28:01.225Z,18.30
2022-08-18T16:30:29.613Z,18.73
2022-08-18T16:33:02.821Z,18.33
2022-08-18T16:35:31.174Z,19.23
2022-08-18T16:38:03.461Z,19.27
2022-08-18T16:40:32.090Z,18.73
2022-08-18T16:43:01.691Z,19.20
2022-08-18T16:45:31.513Z,18.27
2022-08-18T16:47:59.617Z,19.30
2022-08-18T16:50:28.084Z,19.00
2022-08-18T16:53:02.310Z,18.03
2022-08-18T16:55:30.628Z,17.80
2022-08-18T16:58:16.302Z,18.00
2022-08-18T17:01:03.235Z,17.80
2022-08-18T17:03:48.885Z,18.47
2022-08-18T17:06:18.526Z,19.27
2022-08-18T17:08:46.844Z,17.40
2022-08-18T17:11:18.322Z,18.10
2022-08-18T17:13:46.841Z,17.93
2022-08-18T17:16:16.984Z,21.00
2022-08-18T17:18:45.076Z,17.17
2022-08-18T17:21:14.451Z,18.17
2022-08-18T17:23:43.064Z,19.00
2022-08-18T17:26:16.568Z,18.57
2022-08-18T17:28:54.279Z,17.10
2022-08-18T17:31:25.178Z,17.47
2022-08-18T17:33:53.378Z,18.27
2022-08-18T17:36:32.681Z,17.53
2022-08-18T17:39:02.769Z,17.73
2022-08-18T17:41:31.159Z,16.73
2022-08-18T17:44:02.054Z,17.23
2022-08-18T17:46:39.024Z,17.93
2022-08-18T17:49:12.376Z,17.20
2022-08-18T17:51:44.431Z,17.07
2022-08-18T17:54:24.482Z,15.80
2022-08-18T17:56:54.151Z,17.30
2022-08-18T17:59:45.934Z,16.90
2022-08-18T18:02:29.862Z,16.90
2022-08-18T18:04:58.763Z,16.10
2022-08-18T18:07:27.982Z,15.93
2022-08-18T18:09:58.193Z,15.33
2022-08-18T18:12:29.680Z,17.17
2022-08-18T18:14:58.516Z,15.80
2022-08-18T18:17:39.604Z,15.60
2022-08-18T18:20:16.975Z,15.73
2022-08-18T18:22:45.264Z,17.23
2022-08-18T18:25:13.848Z,16.37
2022-08-18T18:27:43.703Z,16.20
2022-08-18T18:30:28.016Z,15.80
2022-08-18T18:33:00.250Z,16.43
2022-08-18T18:35:29.028Z,16.07
2022-08-18T18:37:58.432Z,15.57
2022-08-18T18:40:30.554Z,13.97
2022-08-18T18:42:59.133Z,15.53
2022-08-18T18:45:31.597Z,14.87
2022-08-18T18:48:05.738Z,15.07
2022-08-18T18:50:53.073Z,15.97
2022-08-18T18:53:27.949Z,15.00
2022-08-18T18:56:04.130Z,15.50
2022-08-18T18:58:38.515Z,15.13
2022-08-18T19:01:09.471Z,14.37
2022-08-18T19:03:40.352Z,14.43
2022-08-18T19:06:21.634Z,15.53
2022-08-18T19:08:55.422Z,14.73
2022-08-18T19:11:27.146Z,13.33
2022-08-18T19:13:57.049Z,14.17
2022-08-18T19:16:28.426Z,13.60
2022-08-18T19:19:36.346Z,12.83
2022-08-18T19:22:05.573Z,13.07
2022-08-18T19:24:38.785Z,13.93
2022-08-18T19:27:07.034Z,13.30
2022-08-18T19:29:37.758Z,13.50
2022-08-18T19:32:08.207Z,13.50
2022-08-18T19:34:42.467Z,12.90
2022-08-18T19:37:27.331Z,14.67
2022-08-18T19:40:02.678Z,11.70
2022-08-18T19:42:35.422Z,12.17
2022-08-18T19:45:16.480Z,12.47
2022-08-18T19:47:48.449Z,12.10
2022-08-18T19:50:27.302Z,11.43
2022-08-18T19:53:21.585Z,11.90
2022-08-18T19:56:10.352Z,10.27
2022-08-18T19:59:15.089Z,10.67
2022-08-18T20:01:49.624Z,12.17
2022-08-18T20:04:25.749Z,11.17
2022-08-18T20:07:31.605Z,11.40
2022-08-18T20:10:22.773Z,9.87
2022-08-18T20:13:15.382Z,10.40
2022-08-18T20:16:00.133Z,10.60
2022-08-18T20:18:35.540Z,9.67
2022-08-18T20:21:41.613Z,10.90
2022-08-18T20:24:38.442Z,8.77
2022-08-18T20:27:36.108Z,9.57
2022-08-18T20:30:32.117Z,9.77
2022-08-18T20:33:21.225Z,9.23
2022-08-18T20:35:55.843Z,8.50
2022-08-18T20:38:35.565Z,7.93
2022-08-18T20:41:33.064Z,7.60
2022-08-18T20:44:46.086Z,8.13
2022-08-18T20:47:42.042Z,9.73
2022-08-18T20:50:37.208Z,7.80
2022-08-18T20:53:13.177Z,8.33
2022-08-18T20:55:46.915Z,7.90
2022-08-18T20:58:18.383Z,8.10
2022-08-18T21:00:48.758Z,7.30
2022-08-18T21:03:20.603Z,8.40
2022-08-18T21:05:49.812Z,7.83
2022-08-18T21:08:26.496Z,7.40
2022-08-18T21:10:57.147Z,8.90
2022-08-18T21:13:36.141Z,8.10
2022-08-18T21:16:05.120Z,7.50
2022-08-18T21:18:35.601Z,9.20
2022-08-18T21:21:06.229Z,7.03
2022-08-18T21:23:38.328Z,7.40
2022-08-18T21:26:08.059Z,7.33
2022-08-18T21:28:38.870Z,6.50
2022-08-18T21:31:29.130Z,8.47
2022-08-18T21:33:57.243Z,8.37
2022-08-18T21:36:32.104Z,8.60
2022-08-18T21:39:06.542Z,10.20
2022-08-18T21:41:34.984Z,7.50
2022-08-18T21:44:06.768Z,7.60
2022-08-18T21:46:35.008Z,6.80
2022-08-18T21:49:03.699Z,8.07
2022-08-18T21:51:40.484Z,7.50
2022-08-18T21:54:08.952Z,7.20
2022-08-18T21:56:37.477Z,7.30
2022-08-18T21:59:09.655Z,7.60
2022-08-18T22:01:38.134Z,7.80
2022-08-18T22:04:09.330Z,7.07
2022-08-18T22:06:40.348Z,7.20
2022-08-18T22:09:36.701Z,7.77
2022-08-18T22:12:39.397Z,7.03
2022-08-18T22:15:09.941Z,7.30
2022-08-18T22:17:44.624Z,6.70
2022-08-18T22:20:41.900Z,7.10
2022-08-18T22:23:43.989Z,6.70
2022-08-18T22:26:22.420Z,8.93
2022-08-18T22:28:55.144Z,6.93
2022-08-18T22:31:25.660Z,8.30
2022-08-18T22:33:54.334Z,7.60
2022-08-18T22:36:24.719Z,6.43
2022-08-18T22:38:53.412Z,6.90
2022-08-18T22:41:21.509Z,6.83
2022-08-18T22:43:54.866Z,6.70
2022-08-18T22:46:25.397Z,6.83
2022-08-18T22:48:54.219Z,6.40
2022-08-18T22:51:23.245Z,6.63
2022-08-18T22:53:51.418Z,6.70
2022-08-18T22:56:34.074Z,6.47
2022-08-18T22:59:13.745Z,7.20
2022-08-18T23:01:46.881Z,6.80
2022-08-18T23:04:16.413Z,6.70
2022-08-18T23:06:51.416Z,6.33
2022-08-18T23:09:21.215Z,7.10
2022-08-18T23:11:49.308Z,6.60
2022-08-18T23:14:17.450Z,9.00
2022-08-18T23:16:47.126Z,6.60
2022-08-18T23:19:15.972Z,6.80
2022-08-18T23:21:44.555Z,6.97
2022-08-18T23:24:13.813Z,6.23
2022-08-18T23:26:41.982Z,7.33
2022-08-18T23:29:11.791Z,6.37
2022-08-18T23:31:40.202Z,6.57
2022-08-18T23:34:10.059Z,6.30
2022-08-18T23:36:45.091Z,6.67
2022-08-18T23:39:13.955Z,6.10
2022-08-18T23:41:42.129Z,5.77
2022-08-18T23:44:11.416Z,6.47
2022-08-18T23:46:39.832Z,6.50
2022-08-18T23:49:10.986Z,6.67
2022-08-18T23:51:44.276Z,6.60
2022-08-18T23:54:14.390Z,6.40
2022-08-18T23:56:42.605Z,6.97
2022-08-18T23:59:11.146Z,6.23
